Shenadoah, Ohio
Current Conditions -  °F | °C
As of 10:52 AM on Saturday 25 Oct 2014 (Local Time) from KMFD Reporting Station
Few Clouds Few Clouds  
Wind Chill: 61°   Ceiling: Unl
Heat Index: 61°   Visibility: 10mi
Dew Point: 50°   Wind: 17mph
Humidity: 67%   Direction: 230°SW
Pressure: 29.89"   Gusts: 26mph
Location:  40.9484°N, 82.5121°W
Report Text: KMFD 251452Z 23015G23KT 10SM FEW060 16/10 A2989 RMK AO2 SLP122 T01610100 58012
Loading
Personal Weather Stations






























Interactive Weather Map
Tropical Storm Tracking
New forecast layout! Learn more

10-Day Weather Forecast

Advertisements
Track Severe Weather on mobile